DLH205 KLAX-EKCH
Flight info
| Callsign | DLH205 |
|---|---|
| Flight time | N/A |
| Altitude | 39000 |
| Route | OSHNN1 BEALE Q842 WINEN DCT DTA DCT GABOV DCT PEPKI/M080F390 DCT 62N050W 63N040W 63N030W 63N020W 62N010W DCT VALDI/N0463F390 DCT TESPI |
| Aircraft | A388/J-SADE2E3FGHIJ3J4J5M1RWXY/LB1D1 |
Departure
| Time | 2026-05-04 03:52 |
|---|---|
| Airport | Los Angeles International Airport (KLAX) |
Arrival
| Time | N/A |
|---|---|
| Airport | Copenhagen Kastrup Airport (EKCH) |
| Time | Latitude | Longitude | Altitude | Speed | Heading |
|---|---|---|---|---|---|
| 2026-05-04 03:31 | 33.94258 | -118.41114 | 141 ft | 0 kts | 83° |
| 2026-05-04 03:39 | 33.94257 | -118.41124 | 141 ft | 2 kts | 82° |
| 2026-05-04 03:40 | 33.94255 | -118.41142 | 141 ft | 2 kts | 82° |
| 2026-05-04 03:40 | 33.94254 | -118.41153 | 141 ft | 2 kts | 81° |
| 2026-05-04 03:40 | 33.94250 | -118.41171 | 141 ft | 2 kts | 61° |
| 2026-05-04 03:40 | 33.94242 | -118.41186 | 141 ft | 2 kts | 45° |
| 2026-05-04 03:41 | 33.94231 | -118.41198 | 141 ft | 2 kts | 31° |
| 2026-05-04 03:41 | 33.94217 | -118.41207 | 141 ft | 2 kts | 16° |
| 2026-05-04 03:41 | 33.94203 | -118.41211 | 141 ft | 2 kts | 1° |
| 2026-05-04 03:41 | 33.94193 | -118.41212 | 141 ft | 1 kts | 354° |
| 2026-05-04 03:42 | 33.94189 | -118.41211 | 141 ft | 0 kts | 353° |
| 2026-05-04 03:44 | 33.94195 | -118.41212 | 141 ft | 2 kts | 353° |
| 2026-05-04 03:44 | 33.94218 | -118.41216 | 141 ft | 5 kts | 353° |
| 2026-05-04 03:44 | 33.94259 | -118.41222 | 141 ft | 7 kts | 353° |
| 2026-05-04 03:45 | 33.94317 | -118.41230 | 141 ft | 10 kts | 353° |
| 2026-05-04 03:45 | 33.94393 | -118.41242 | 141 ft | 12 kts | 353° |
| 2026-05-04 03:45 | 33.94489 | -118.41256 | 141 ft | 15 kts | 353° |
| 2026-05-04 03:45 | 33.94595 | -118.41270 | 141 ft | 16 kts | 354° |
| 2026-05-04 03:46 | 33.94701 | -118.41285 | 141 ft | 15 kts | 353° |
| 2026-05-04 03:46 | 33.94782 | -118.41272 | 141 ft | 10 kts | 41° |
| 2026-05-04 03:46 | 33.94803 | -118.41200 | 141 ft | 9 kts | 83° |
| 2026-05-04 03:46 | 33.94809 | -118.41131 | 141 ft | 8 kts | 83° |
| 2026-05-04 03:47 | 33.94816 | -118.41058 | 141 ft | 10 kts | 83° |
| 2026-05-04 03:47 | 33.94824 | -118.40975 | 141 ft | 10 kts | 83° |
| 2026-05-04 03:47 | 33.94833 | -118.40889 | 141 ft | 11 kts | 83° |
| 2026-05-04 03:47 | 33.94843 | -118.40800 | 141 ft | 11 kts | 83° |
| 2026-05-04 03:48 | 33.94852 | -118.40706 | 141 ft | 11 kts | 83° |
| 2026-05-04 03:48 | 33.94862 | -118.40610 | 141 ft | 12 kts | 83° |
| 2026-05-04 03:48 | 33.94872 | -118.40509 | 141 ft | 12 kts | 83° |
| 2026-05-04 03:48 | 33.94883 | -118.40406 | 141 ft | 13 kts | 83° |
| 2026-05-04 03:49 | 33.94894 | -118.40298 | 141 ft | 13 kts | 83° |
| 2026-05-04 03:49 | 33.94905 | -118.40192 | 141 ft | 11 kts | 83° |
| 2026-05-04 03:49 | 33.94912 | -118.40125 | 141 ft | 6 kts | 83° |
| 2026-05-04 03:49 | 33.94916 | -118.40086 | 141 ft | 4 kts | 83° |
| 2026-05-04 03:50 | 33.94919 | -118.40061 | 141 ft | 2 kts | 83° |
| 2026-05-04 03:50 | 33.94920 | -118.40047 | 141 ft | 1 kts | 83° |
| 2026-05-04 03:50 | 33.94921 | -118.40041 | 141 ft | 1 kts | 83° |
| 2026-05-04 03:50 | 33.94924 | -118.40011 | 141 ft | 6 kts | 83° |
| 2026-05-04 03:51 | 33.94938 | -118.39955 | 141 ft | 8 kts | 65° |
| 2026-05-04 03:51 | 33.94985 | -118.39917 | 141 ft | 9 kts | 8° |
| 2026-05-04 03:51 | 33.95035 | -118.39944 | 141 ft | 8 kts | 302° |
| 2026-05-04 03:51 | 33.95036 | -118.40015 | 141 ft | 11 kts | 264° |
| 2026-05-04 03:52 | 33.95002 | -118.40356 | 141 ft | 72 kts | 263° |
| 2026-05-04 03:52 | 33.94916 | -118.41201 | 141 ft | 132 kts | 263° |
| 2026-05-04 03:52 | 33.94781 | -118.42528 | 257 ft | 181 kts | 263° |
| 2026-05-04 03:52 | 33.94618 | -118.44085 | 896 ft | 197 kts | 264° |
| 2026-05-04 03:53 | 33.94454 | -118.45736 | 1550 ft | 204 kts | 265° |
| 2026-05-04 03:53 | 33.94363 | -118.47465 | 2003 ft | 209 kts | 267° |
| 2026-05-04 03:53 | 33.94294 | -118.49211 | 2454 ft | 211 kts | 267° |
| 2026-05-04 03:53 | 33.94213 | -118.50970 | 2902 ft | 213 kts | 264° |
| 2026-05-04 03:54 | 33.94075 | -118.52767 | 3395 ft | 222 kts | 264° |
| 2026-05-04 03:54 | 33.93928 | -118.54641 | 4055 ft | 231 kts | 264° |
| 2026-05-04 03:54 | 33.93816 | -118.56093 | 4516 ft | 236 kts | 264° |
| 2026-05-04 03:54 | 33.93662 | -118.58067 | 5010 ft | 240 kts | 265° |
| 2026-05-04 03:55 | 33.93505 | -118.60069 | 5659 ft | 241 kts | 265° |
| 2026-05-04 03:55 | 33.93092 | -118.61995 | 6385 ft | 244 kts | 236° |
| 2026-05-04 03:55 | 33.91828 | -118.63307 | 7226 ft | 249 kts | 208° |
| 2026-05-04 03:55 | 33.90210 | -118.64017 | 7962 ft | 255 kts | 189° |
| 2026-05-04 03:56 | 33.88460 | -118.64060 | 8595 ft | 253 kts | 177° |
| 2026-05-04 03:56 | 33.86707 | -118.63905 | 9078 ft | 256 kts | 178° |
| 2026-05-04 03:56 | 33.84938 | -118.63692 | 9360 ft | 259 kts | 166° |
| 2026-05-04 03:56 | 33.83251 | -118.62894 | 9637 ft | 263 kts | 153° |
| 2026-05-04 03:57 | 33.81706 | -118.61725 | 9899 ft | 265 kts | 149° |
| 2026-05-04 03:57 | 33.80183 | -118.60490 | 10151 ft | 266 kts | 150° |
| 2026-05-04 03:57 | 33.78648 | -118.59264 | 10400 ft | 267 kts | 150° |
| 2026-05-04 03:57 | 33.77108 | -118.58023 | 10552 ft | 269 kts | 150° |
| 2026-05-04 03:58 | 33.74007 | -118.55527 | 10797 ft | 270 kts | 150° |
| 2026-05-04 03:58 | 33.72441 | -118.54268 | 10921 ft | 271 kts | 150° |
| 2026-05-04 03:58 | 33.70908 | -118.52970 | 11031 ft | 274 kts | 141° |
| 2026-05-04 03:59 | 33.69666 | -118.51230 | 11173 ft | 279 kts | 126° |
| 2026-05-04 03:59 | 33.68808 | -118.49049 | 11539 ft | 303 kts | 112° |
| 2026-05-04 03:59 | 33.68116 | -118.46608 | 12289 ft | 319 kts | 114° |
| 2026-05-04 03:59 | 33.67352 | -118.44067 | 13071 ft | 334 kts | 114° |
| 2026-05-04 04:00 | 33.66559 | -118.41392 | 13848 ft | 351 kts | 114° |
| 2026-05-04 04:00 | 33.65723 | -118.38569 | 14629 ft | 368 kts | 115° |
| 2026-05-04 04:00 | 33.64928 | -118.35599 | 15387 ft | 388 kts | 106° |
| 2026-05-04 04:00 | 33.64558 | -118.32330 | 16176 ft | 408 kts | 98° |
| 2026-05-04 04:01 | 33.64493 | -118.28870 | 16948 ft | 427 kts | 93° |
| 2026-05-04 04:01 | 33.64505 | -118.25256 | 17721 ft | 444 kts | 94° |
| 2026-05-04 04:01 | 33.64802 | -118.21519 | 18461 ft | 465 kts | 76° |
| 2026-05-04 04:01 | 33.66063 | -118.17922 | 19254 ft | 479 kts | 56° |
| 2026-05-04 04:02 | 33.68186 | -118.14822 | 20062 ft | 484 kts | 42° |
| 2026-05-04 04:02 | 33.70690 | -118.12160 | 20823 ft | 485 kts | 32° |
| 2026-05-04 04:02 | 33.73445 | -118.09811 | 21517 ft | 492 kts | 31° |
| 2026-05-04 04:02 | 33.76191 | -118.07349 | 22145 ft | 498 kts | 32° |
| 2026-05-04 04:03 | 33.78973 | -118.04876 | 22776 ft | 503 kts | 31° |
| 2026-05-04 04:03 | 33.81783 | -118.02372 | 23407 ft | 508 kts | 31° |
| 2026-05-04 04:03 | 33.84615 | -117.99847 | 24038 ft | 512 kts | 31° |
| 2026-05-04 04:03 | 33.87498 | -117.97274 | 24675 ft | 517 kts | 31° |
| 2026-05-04 04:04 | 33.89959 | -117.95078 | 25214 ft | 522 kts | 31° |
| 2026-05-04 04:04 | 33.92648 | -117.92639 | 25803 ft | 528 kts | 32° |
| 2026-05-04 04:04 | 33.95562 | -117.89967 | 26439 ft | 533 kts | 31° |
| 2026-05-04 04:04 | 33.98516 | -117.87274 | 27075 ft | 539 kts | 31° |
| 2026-05-04 04:05 | 34.01496 | -117.84544 | 27620 ft | 544 kts | 31° |
| 2026-05-04 04:05 | 34.04502 | -117.81791 | 28074 ft | 547 kts | 31° |
| 2026-05-04 04:05 | 34.07487 | -117.78925 | 28518 ft | 552 kts | 37° |
| 2026-05-04 04:05 | 34.10212 | -117.75666 | 28991 ft | 555 kts | 42° |
| 2026-05-04 04:06 | 34.12748 | -117.72145 | 29332 ft | 560 kts | 46° |
| 2026-05-04 04:06 | 34.15178 | -117.68497 | 29661 ft | 560 kts | 46° |
| 2026-05-04 04:06 | 34.17622 | -117.64865 | 29986 ft | 560 kts | 46° |
| 2026-05-04 04:06 | 34.20067 | -117.61235 | 30301 ft | 561 kts | 46° |
| 2026-05-04 04:07 | 34.22515 | -117.57595 | 30555 ft | 562 kts | 46° |
| 2026-05-04 04:07 | 34.24978 | -117.53923 | 30845 ft | 561 kts | 46° |
| 2026-05-04 04:07 | 34.27427 | -117.50275 | 31180 ft | 561 kts | 45° |
| 2026-05-04 04:07 | 34.29871 | -117.46630 | 31512 ft | 561 kts | 45° |
| 2026-05-04 04:08 | 34.32315 | -117.42979 | 31846 ft | 562 kts | 45° |
| 2026-05-04 04:08 | 34.34758 | -117.39323 | 32184 ft | 562 kts | 45° |
| 2026-05-04 04:08 | 34.37204 | -117.35664 | 32524 ft | 561 kts | 45° |
| 2026-05-04 04:08 | 34.39646 | -117.32007 | 32831 ft | 562 kts | 45° |
| 2026-05-04 04:09 | 34.42109 | -117.28317 | 33135 ft | 562 kts | 45° |
| 2026-05-04 04:09 | 34.44547 | -117.24650 | 33440 ft | 562 kts | 45° |
| 2026-05-04 04:09 | 34.46988 | -117.20984 | 33746 ft | 562 kts | 45° |
| 2026-05-04 04:09 | 34.49428 | -117.17316 | 34050 ft | 563 kts | 45° |
| 2026-05-04 04:10 | 34.51872 | -117.13637 | 34297 ft | 563 kts | 45° |
| 2026-05-04 04:10 | 34.54318 | -117.09964 | 34535 ft | 562 kts | 44° |
| 2026-05-04 04:10 | 34.56804 | -117.06341 | 34775 ft | 561 kts | 43° |
| 2026-05-04 04:10 | 34.59310 | -117.02698 | 35020 ft | 561 kts | 44° |
| 2026-05-04 04:11 | 34.61792 | -116.99079 | 35264 ft | 561 kts | 44° |
| 2026-05-04 04:11 | 34.64270 | -116.95465 | 35511 ft | 559 kts | 44° |
| 2026-05-04 04:11 | 34.66740 | -116.91858 | 35755 ft | 559 kts | 44° |
| 2026-05-04 04:11 | 34.69224 | -116.88234 | 36014 ft | 564 kts | 44° |
| 2026-05-04 04:12 | 34.71724 | -116.84578 | 36283 ft | 567 kts | 44° |
| 2026-05-04 04:12 | 34.74228 | -116.80904 | 36543 ft | 568 kts | 44° |
| 2026-05-04 04:12 | 34.76755 | -116.77199 | 36802 ft | 568 kts | 44° |